Caxito, Angola
Current Conditions -  °F | °C
As of 8:00 AM on Sunday 23 Nov 2014 (Local Time) from FNLU Reporting Station
Scattered Clouds Scattered Clouds  
Wind Chill: 82°   Ceiling: Unl
Heat Index: 87°   Visibility: 6mi
Dew Point: 72°   Wind: 7mph
Humidity: 70%   Direction: 160°SSE
Pressure: 29.94"   Gusts: NA
Location:  8.58°S, 13.66°E
Report Text: FNLU 230700Z 16006KT 9999 SCT023 SCT250 28/22 Q1014 NOSIG
Loading
Personal Weather Stations






























Interactive Weather Map New forecast layout! Learn more

10-Day Weather Forecast

Advertisements
Track Severe Weather on mobile